Allentown, Arizona
Current Conditions -  °F | °C
As of 6:53 AM on Saturday 01 Nov 2014 (Local Time) from KRQE Reporting Station
Clear Clear  
Wind Chill: 46°   Ceiling: Unl
Heat Index: 46°   Visibility: 10mi
Dew Point: 40°   Wind: 3mph
Humidity: 79%   Direction: 90°E
Pressure: 30.1"   Gusts: NA
Location:  35.2918°N, 109.157°W
Report Text: KRQE 011253Z AUTO 09003KT 10SM CLR 08/04 A3010 RMK AO2 SLP108 T00780044 TSNO
Loading
Personal Weather Stations






























Interactive Weather Map
Tropical Storm Tracking
New forecast layout! Learn more

10-Day Weather Forecast

Advertisements
Track Severe Weather on mobile